This is the latest recevied weather packets stored in our database for station/object EB1BCG-1. If no packets are shown the sender has not sent any weather packets the latest 1 day(s).
| Time | Temp. | Humidity | Pressure | Rain* | Wind** | Luminosity | Snow |
|---|---|---|---|---|---|---|---|
| 1777902937 | 18.33° C | 81% | 1010.6 hPa | 0 mm | 0 m/s | - | - |
| 1777901724 | 15° C | 99% | 1011.3 hPa | 0 mm | 0 m/s | - | - |
| 1777901114 | 10.56° C | 99% | 1011.7 hPa | 1.02 mm | 0 m/s | - | - |
| 1777900508 | 9.44° C | 99% | 1012.1 hPa | 1.02 mm | 0 m/s | - | - |
| 1777899900 | 9.44° C | 99% | 1012.5 hPa | 1.02 mm | 0 m/s | - | - |
| 1777899293 | 10.56° C | 99% | 1012.4 hPa | 3.05 mm | 0 m/s | - | - |
| 1777898688 | 10.56° C | 99% | 1012.1 hPa | 3.56 mm | 0 m/s | - | - |
| 1777898081 | 8.89° C | 99% | 1012.2 hPa | 3.56 mm | 0 m/s | - | - |
| 1777897540 | 8.33° C | 99% | 1012.5 hPa | 3.05 mm | 0 m/s | - | - |
| 1777896997 | 8.33° C | 99% | 1012.5 hPa | 2.54 mm | 0 m/s | - | - |
| 1777896392 | 8.33° C | 91% | 1012.2 hPa | 2.54 mm | 0 m/s | - | - |
| 1777895788 | 7.78° C | 78% | 1012.5 hPa | 2.54 mm | 0 m/s | - | - |
| 1777895248 | 7.78° C | 72% | 1012.8 hPa | 0.51 mm | 0 m/s | - | - |
| 1777894708 | 10° C | 72% | 1012.4 hPa | 0 mm | 0 m/s | - | - |
| 1777894097 | 12.22° C | 72% | 1011.8 hPa | 0 mm | 0 m/s | - | - |
| 1777893491 | 12.78° C | 70% | 1011.5 hPa | 0 mm | 0 m/s | - | - |
| 1777892888 | 12.22° C | 70% | 1011.4 hPa | 0 mm | 0 m/s | - | - |
| 1777892279 | 13.33° C | 63% | 1011.6 hPa | 0 mm | 0 m/s | - | - |
| 1777891672 | 13.89° C | 58% | 1011.6 hPa | 0 mm | 0 m/s | - | - |
| 1777891068 | 14.44° C | 60% | 1011.5 hPa | 0 mm | 0 m/s | - | - |
| 1777890460 | 16.11° C | 62% | 1011.3 hPa | 0 mm | 0 m/s | - | - |
| 1777889853 | 16.11° C | 63% | 1011.4 hPa | 0.51 mm | 0 m/s | - | - |
| 1777889253 | 15.56° C | 56% | 1011.4 hPa | 0.51 mm | 0 m/s | - | - |
| 1777888641 | 16.11° C | 62% | 1011.4 hPa | 0.51 mm | 0 m/s | - | - |
| 1777888033 | 16.11° C | 65% | 1011.3 hPa | 0.51 mm | 0 m/s | - | - |
* Rain latest hour (hover to see other rain measurements)
** Current wind speed in m/s (hover to see current wind gust speed)